Time;durP1;ratioP1;P1;durP2;ratioP2;P2;SDS_P1;SDS_P2;PMS_P1;PMS_P2;Temp;Humidity;BMP_temperature;BMP_pressure;BME280_temperature;BME280_humidity;BME280_pressure;Samples;Min_cycle;Max_cycle;Signal;HPM_P1;HPM_P2
2023/01/14 00:02:00;;;;;;;;;;;8.30;99.90;;;;;;5052254;28;20008;-71
2023/01/14 00:04:26;;;;;;;;;;;;;;;;;;5052146;28;19927;-71
2023/01/14 00:06:52;;;;;;;;;;;8.40;99.90;;;;;;5051773;28;19932;-71
2023/01/14 00:09:17;;;;;;;;;;;8.30;99.90;;;;;;5052427;28;20007;-71
2023/01/14 00:11:46;;;;;;;;;;;8.20;99.90;;;;;;5052049;28;19921;-71
2023/01/14 00:14:12;;;;;;;;;;;;;;;;;;5051930;28;19920;-71
2023/01/14 00:16:37;;;;;;;;;;;8.00;99.90;;;;;;5052977;28;20515;-71
2023/01/14 00:19:03;;;;;;;;;;;8.00;99.90;;;;;;5053121;28;19924;-71
2023/01/14 00:21:28;;;;;;;;;;;8.30;99.90;;;;;;5052048;28;20305;-71
2023/01/14 00:23:54;;;;;;;;;;;8.30;99.90;;;;;;5053295;28;20433;-71
2023/01/14 00:26:20;;;;;;;;;;;8.20;99.90;;;;;;5067956;28;19921;-71
2023/01/14 00:28:46;;;;;;;;;;;8.20;99.90;;;;;;5051416;28;19924;-71
2023/01/14 00:31:13;;;;;;;;;;;8.50;99.90;;;;;;5052923;28;19921;-71
2023/01/14 00:33:39;;;;;;;;;;;;;;;;;;5052806;28;20414;-71
2023/01/14 00:36:05;;;;;;;;;;;8.10;99.90;;;;;;5052095;28;19927;-72
2023/01/14 00:38:31;;;;;;;;;;;;;;;;;;5034926;28;20012;-72
2023/01/14 00:40:57;;;;;;;;;;;;;;;;;;5018311;28;19971;-72
2023/01/14 00:43:23;;;;;;;;;;;8.00;99.90;;;;;;5052942;28;20020;-72
2023/01/14 00:45:48;;;;;;;;;;;8.00;99.90;;;;;;5034700;28;20412;-71
2023/01/14 00:48:14;;;;;;;;;;;8.10;99.90;;;;;;5052523;28;19924;-73
2023/01/14 00:50:39;;;;;;;;;;;8.10;99.90;;;;;;5034776;28;19921;-71
2023/01/14 00:53:05;;;;;;;;;;;8.00;99.90;;;;;;5018536;28;19928;-71
2023/01/14 00:55:33;;;;;;;;;;;7.90;99.90;;;;;;5052237;28;20007;-71
2023/01/14 00:57:59;;;;;;;;;;;8.20;99.90;;;;;;5051528;28;19940;-71
2023/01/14 01:00:24;;;;;;;;;;;8.00;99.90;;;;;;5052662;28;20027;-71
2023/01/14 01:02:50;;;;;;;;;;;7.80;99.90;;;;;;5052475;28;19927;-71
2023/01/14 01:05:15;;;;;;;;;;;8.00;99.90;;;;;;5034264;28;19927;-71
2023/01/14 01:07:42;;;;;;;;;;;;;;;;;;5034676;28;20012;-71
2023/01/14 01:10:07;;;;;;;;;;;;;;;;;;5034549;28;20015;-71
2023/01/14 01:12:33;;;;;;;;;;;;;;;;;;5034676;28;20015;-71
2023/01/14 01:14:59;;;;;;;;;;;8.00;99.90;;;;;;5034517;28;19974;-71
2023/01/14 01:17:24;;;;;;;;;;;8.10;99.90;;;;;;5033845;28;19970;-71
2023/01/14 01:19:52;;;;;;;;;;;8.10;99.90;;;;;;5034251;28;20298;-71
2023/01/14 01:22:17;;;;;;;;;;;7.70;99.90;;;;;;5034218;28;19928;-71
2023/01/14 01:24:43;;;;;;;;;;;8.00;99.90;;;;;;5050999;28;20402;-71
2023/01/14 01:27:08;;;;;;;;;;;7.90;99.90;;;;;;5033829;28;19928;-71
2023/01/14 01:29:34;;;;;;;;;;;;;;;;;;5048447;28;20290;-71
2023/01/14 01:32:00;;;;;;;;;;;;;;;;;;4998020;28;19921;-71
2023/01/14 01:34:26;;;;;;;;;;;;;;;;;;5014262;28;20004;-71
2023/01/14 01:36:52;;;;;;;;;;;7.70;99.90;;;;;;5013988;28;19921;-71
2023/01/14 01:39:17;;;;;;;;;;;7.90;99.90;;;;;;5032244;28;19921;-71
2023/01/14 01:41:43;;;;;;;;;;;;;;;;;;5030901;28;19922;-71
2023/01/14 01:44:11;;;;;;;;;;;8.00;99.90;;;;;;5032109;28;19952;-71
2023/01/14 01:46:37;;;;;;;;;;;7.90;99.90;;;;;;5013770;28;19921;-71
2023/01/14 01:49:05;;;;;;;;;;;7.90;99.90;;;;;;5014396;28;19921;-71
2023/01/14 01:51:31;;;;;;;;;;;;;;;;;;5032061;28;19928;-71
2023/01/14 01:53:57;;;;;;;;;;;8.00;99.90;;;;;;5014589;28;20301;-71
2023/01/14 01:56:25;;;;;;;;;;;7.90;99.90;;;;;;5031642;28;19921;-71
2023/01/14 01:58:52;;;;;;;;;;;8.00;99.90;;;;;;5015001;28;20386;-71
2023/01/14 02:01:17;;;;;;;;;;;7.90;99.90;;;;;;5035740;28;19928;-71
2023/01/14 02:03:45;;;;;;;;;;;8.00;99.90;;;;;;5035790;28;19921;-71
2023/01/14 02:06:11;;;;;;;;;;;;;;;;;;5034293;28;20014;-71
2023/01/14 02:08:37;;;;;;;;;;;;;;;;;;5017910;28;19998;-71
2023/01/14 02:11:03;;;;;;;;;;;;;;;;;;5025500;28;19942;-71
2023/01/14 02:13:29;;;;;;;;;;;;;;;;;;5054471;28;20016;-71
2023/01/14 02:15:55;;;;;;;;;;;8.00;99.90;;;;;;5053516;28;20054;-71
2023/01/14 02:18:20;;;;;;;;;;;7.80;99.90;;;;;;5055399;28;19928;-71
2023/01/14 02:20:46;;;;;;;;;;;;;;;;;;5054197;28;19921;-71
2023/01/14 02:23:30;;;;;;;;;;;7.70;99.90;;;;;;5037345;28;20444;-71
2023/01/14 02:25:56;;;;;;;;;;;;;;;;;;5036888;28;19961;-71
2023/01/14 02:28:22;;;;;;;;;;;;;;;;;;5055115;28;20101;-71
2023/01/14 02:31:04;;;;;;;;;;;7.70;99.90;;;;;;5055385;28;19925;-71
2023/01/14 02:33:30;;;;;;;;;;;;;;;;;;5053796;28;20014;-71
2023/01/14 02:36:10;;;;;;;;;;;7.70;99.90;;;;;;5054879;28;19964;-71
2023/01/14 02:38:50;;;;;;;;;;;7.70;99.90;;;;;;5053981;28;20370;-71
2023/01/14 02:44:19;;;;;;;;;;;7.50;99.90;;;;;;5053775;28;19928;-71
2023/01/14 02:46:45;;;;;;;;;;;;;;;;;;5053587;28;20255;-71
2023/01/14 02:49:13;;;;;;;;;;;7.40;99.90;;;;;;5054864;28;19928;-71
2023/01/14 02:51:38;;;;;;;;;;;7.50;99.90;;;;;;5053874;28;20406;-71
2023/01/14 02:54:04;;;;;;;;;;;7.50;99.90;;;;;;5053820;28;19927;-71
2023/01/14 02:56:30;;;;;;;;;;;;;;;;;;5053132;28;19928;-71
2023/01/14 02:58:56;;;;;;;;;;;;;;;;;;5036772;28;19928;-71
2023/01/14 03:01:21;;;;;;;;;;;7.50;99.90;;;;;;5054592;28;19921;-71
2023/01/14 03:03:57;;;;;;;;;;;7.30;99.90;;;;;;5036664;28;19921;-71
2023/01/14 03:06:26;;;;;;;;;;;7.40;99.90;;;;;;5053290;28;20306;-71
2023/01/14 03:08:52;;;;;;;;;;;;;;;;;;5053316;28;20394;-71
2023/01/14 03:11:18;;;;;;;;;;;7.30;99.90;;;;;;5052117;28;19932;-71
2023/01/14 03:13:43;;;;;;;;;;;7.40;99.90;;;;;;5053983;28;19959;-71
2023/01/14 03:16:09;;;;;;;;;;;;;;;;;;5052539;28;19932;-71
2023/01/14 03:18:34;;;;;;;;;;;7.40;99.90;;;;;;5053887;28;19921;-71
2023/01/14 03:21:05;;;;;;;;;;;7.20;99.90;;;;;;5053299;28;19989;-71
2023/01/14 03:23:34;;;;;;;;;;;7.20;99.90;;;;;;5052995;28;20382;-71
2023/01/14 03:26:01;;;;;;;;;;;7.20;99.90;;;;;;5053826;28;19920;-71
2023/01/14 03:28:30;;;;;;;;;;;7.20;99.90;;;;;;5052889;28;19932;-71
2023/01/14 03:30:56;;;;;;;;;;;;;;;;;;5040934;28;19921;-71
2023/01/14 03:33:24;;;;;;;;;;;7.10;99.90;;;;;;5035981;28;19932;-71
2023/01/14 03:35:51;;;;;;;;;;;7.20;99.90;;;;;;5054049;28;19921;-71
2023/01/14 03:38:17;;;;;;;;;;;;;;;;;;5054378;28;19974;-71
2023/01/14 03:40:42;;;;;;;;;;;;;;;;;;5020164;28;19925;-71
2023/01/14 03:43:08;;;;;;;;;;;;;;;;;;5019921;28;19920;-71
2023/01/14 03:45:36;;;;;;;;;;;7.00;99.90;;;;;;5035413;28;19928;-71
2023/01/14 03:48:02;;;;;;;;;;;6.90;99.90;;;;;;5035877;28;20008;-72
2023/01/14 03:50:34;;;;;;;;;;;7.10;99.90;;;;;;5035813;28;19999;-73
2023/01/14 03:52:59;;;;;;;;;;;;;;;;;;5035935;28;19931;-71
2023/01/14 03:55:25;;;;;;;;;;;;;;;;;;5035516;28;19920;-71
2023/01/14 03:57:58;;;;;;;;;;;6.80;99.90;;;;;;5053545;28;20537;-71
2023/01/14 04:00:24;;;;;;;;;;;;;;;;;;5035447;28;20386;-71
2023/01/14 04:02:50;;;;;;;;;;;;;;;;;;5035602;28;19946;-71
2023/01/14 04:05:16;;;;;;;;;;;;;;;;;;5035356;28;19975;-71
2023/01/14 04:07:42;;;;;;;;;;;7.00;99.90;;;;;;5018898;28;20307;-71
2023/01/14 04:10:08;;;;;;;;;;;7.10;99.90;;;;;;5035882;28;19921;-71
2023/01/14 04:12:33;;;;;;;;;;;6.90;99.90;;;;;;5035374;28;19965;-71
2023/01/14 04:17:43;;;;;;;;;;;7.00;99.90;;;;;;5053136;28;19921;-71
2023/01/14 04:20:09;;;;;;;;;;;6.90;99.90;;;;;;5053357;28;19932;-71
2023/01/14 04:22:34;;;;;;;;;;;6.90;99.90;;;;;;5034937;28;20410;-71
2023/01/14 04:25:00;;;;;;;;;;;6.90;99.90;;;;;;5036225;28;19957;-71
2023/01/14 04:27:26;;;;;;;;;;;;;;;;;;5052607;28;19929;-70
2023/01/14 04:29:52;;;;;;;;;;;;;;;;;;5029376;28;19988;-70
2023/01/14 04:32:18;;;;;;;;;;;;;;;;;;5033182;28;20020;-70
2023/01/14 04:34:43;;;;;;;;;;;6.60;99.90;;;;;;5052053;28;19927;-70
2023/01/14 04:37:08;;;;;;;;;;;6.70;99.90;;;;;;5040720;28;19931;-70
2023/01/14 04:39:34;;;;;;;;;;;;;;;;;;5052482;28;20400;-70
2023/01/14 04:44:46;;;;;;;;;;;6.70;99.90;;;;;;5015259;28;20282;-70
2023/01/14 04:47:12;;;;;;;;;;;6.80;99.90;;;;;;5031332;28;19925;-71
2023/01/14 04:49:37;;;;;;;;;;;6.70;99.90;;;;;;5015320;28;20007;-70
2023/01/14 04:52:03;;;;;;;;;;;;;;;;;;5017833;28;19933;-70
2023/01/14 04:54:29;;;;;;;;;;;;;;;;;;5052362;28;19983;-70
2023/01/14 04:56:55;;;;;;;;;;;6.80;99.90;;;;;;5034312;28;20016;-70
2023/01/14 04:59:20;;;;;;;;;;;6.80;99.90;;;;;;5034574;28;19973;-70
2023/01/14 05:01:46;;;;;;;;;;;6.90;99.90;;;;;;5034547;28;20298;-70
2023/01/14 05:04:11;;;;;;;;;;;6.70;99.90;;;;;;5039875;28;20340;-70
2023/01/14 05:06:37;;;;;;;;;;;6.60;99.90;;;;;;5034202;28;19921;-71
2023/01/14 05:09:02;;;;;;;;;;;6.70;99.90;;;;;;5052126;28;19932;-71
2023/01/14 05:11:28;;;;;;;;;;;6.60;99.90;;;;;;5051055;28;19994;-71
2023/01/14 05:13:53;;;;;;;;;;;6.60;99.90;;;;;;5051327;28;20444;-71
2023/01/14 05:16:19;;;;;;;;;;;6.60;99.90;;;;;;5050803;28;19928;-70
2023/01/14 05:18:45;;;;;;;;;;;6.60;99.90;;;;;;5050922;28;19956;-69
2023/01/14 05:21:10;;;;;;;;;;;6.80;99.90;;;;;;5050966;28;19921;-70
2023/01/14 05:23:37;;;;;;;;;;;6.60;99.90;;;;;;5052334;28;20348;-71
2023/01/14 05:26:02;;;;;;;;;;;6.60;99.90;;;;;;5050634;28;20011;-70
2023/01/14 05:28:28;;;;;;;;;;;6.80;99.90;;;;;;5052293;28;20391;-70
2023/01/14 05:30:54;;;;;;;;;;;6.60;99.90;;;;;;5051127;28;19920;-70
2023/01/14 05:33:19;;;;;;;;;;;6.50;99.90;;;;;;5050367;28;19921;-71
2023/01/14 05:35:45;;;;;;;;;;;6.60;99.90;;;;;;5050963;28;20374;-71
2023/01/14 05:38:10;;;;;;;;;;;6.70;99.90;;;;;;5051001;28;19921;-71
2023/01/14 05:40:36;;;;;;;;;;;6.80;99.90;;;;;;5050997;28;20385;-71
2023/01/14 05:45:49;;;;;;;;;;;6.70;99.90;;;;;;5051853;28;19921;-70
2023/01/14 05:48:19;;;;;;;;;;;6.80;99.90;;;;;;5051943;28;19925;-71
2023/01/14 05:50:45;;;;;;;;;;;6.80;99.90;;;;;;5050539;28;20003;-71
2023/01/14 05:53:10;;;;;;;;;;;6.70;99.90;;;;;;5052099;28;20391;-70
2023/01/14 05:55:36;;;;;;;;;;;6.90;99.90;;;;;;5050274;28;19921;-71
2023/01/14 05:58:03;;;;;;;;;;;6.80;99.90;;;;;;5051941;28;19921;-70
2023/01/14 06:08:41;;;;;;;;;;;7.00;99.90;;;;;;5050472;28;19967;-71
2023/01/14 06:11:08;;;;;;;;;;;6.80;99.90;;;;;;5033752;28;20334;-71
2023/01/14 06:13:34;;;;;;;;;;;6.80;99.90;;;;;;5050389;28;19979;-71
2023/01/14 06:16:02;;;;;;;;;;;6.70;99.90;;;;;;5051461;28;20351;-70
2023/01/14 06:18:37;;;;;;;;;;;6.80;99.90;;;;;;5067381;28;20360;-71
2023/01/14 06:21:02;;;;;;;;;;;6.60;99.90;;;;;;5050290;28;19921;-71
2023/01/14 06:23:28;;;;;;;;;;;6.70;99.90;;;;;;5050708;28;20011;-71
2023/01/14 06:25:53;;;;;;;;;;;6.70;99.90;;;;;;5049718;28;19921;-71
2023/01/14 06:28:19;;;;;;;;;;;6.80;99.90;;;;;;5033395;28;19936;-71
2023/01/14 06:30:44;;;;;;;;;;;6.90;99.90;;;;;;5051647;28;19983;-71
2023/01/14 06:33:10;;;;;;;;;;;6.70;99.90;;;;;;5033729;28;20378;-71
2023/01/14 06:35:40;;;;;;;;;;;6.60;99.90;;;;;;5033214;28;19947;-71
2023/01/14 06:38:06;;;;;;;;;;;6.70;99.90;;;;;;5033536;28;19967;-71
2023/01/14 06:40:31;;;;;;;;;;;6.60;99.90;;;;;;5033406;28;19921;-71
2023/01/14 06:42:57;;;;;;;;;;;6.80;99.90;;;;;;5051618;28;19920;-71
2023/01/14 06:45:23;;;;;;;;;;;6.90;99.90;;;;;;5034925;28;20016;-71
2023/01/14 06:47:49;;;;;;;;;;;6.90;99.90;;;;;;5037220;28;19935;-71
2023/01/14 06:50:17;;;;;;;;;;;6.80;99.90;;;;;;5037403;28;20297;-71
2023/01/14 06:52:42;;;;;;;;;;;6.80;99.90;;;;;;5054761;28;20409;-71
2023/01/14 06:55:08;;;;;;;;;;;6.80;99.90;;;;;;5036537;28;19924;-71
2023/01/14 06:57:34;;;;;;;;;;;6.80;99.90;;;;;;5054859;28;19921;-71
2023/01/14 06:59:59;;;;;;;;;;;6.80;99.90;;;;;;5054950;28;19928;-71
2023/01/14 07:02:24;;;;;;;;;;;6.90;99.90;;;;;;5037016;28;20382;-71
2023/01/14 07:04:50;;;;;;;;;;;6.90;99.90;;;;;;5053459;28;19967;-71
2023/01/14 07:07:16;;;;;;;;;;;7.00;99.90;;;;;;5036609;28;19990;-71
2023/01/14 07:09:42;;;;;;;;;;;6.90;99.90;;;;;;5036597;28;19921;-71
2023/01/14 07:12:08;;;;;;;;;;;6.90;99.90;;;;;;5054648;28;19921;-71
2023/01/14 07:14:33;;;;;;;;;;;7.00;99.90;;;;;;5036876;28;19928;-71
2023/01/14 07:17:00;;;;;;;;;;;6.90;99.90;;;;;;5036468;28;19925;-71
2023/01/14 07:19:25;;;;;;;;;;;7.10;99.90;;;;;;5054468;28;19936;-71
2023/01/14 07:21:51;;;;;;;;;;;6.90;99.90;;;;;;5036339;28;19921;-71
2023/01/14 07:24:16;;;;;;;;;;;7.00;99.90;;;;;;5036604;28;20386;-71
2023/01/14 07:26:42;;;;;;;;;;;7.10;99.90;;;;;;5035850;28;19975;-71
2023/01/14 07:29:07;;;;;;;;;;;7.10;99.90;;;;;;5046944;28;19980;-71
2023/01/14 07:31:33;;;;;;;;;;;7.20;99.90;;;;;;5016525;28;19921;-71
2023/01/14 07:33:58;;;;;;;;;;;7.10;99.90;;;;;;5016430;28;20306;-71
2023/01/14 07:36:24;;;;;;;;;;;7.10;99.90;;;;;;5016301;28;20362;-71
2023/01/14 07:38:49;;;;;;;;;;;7.20;99.90;;;;;;5016257;28;19964;-71
2023/01/14 07:41:18;;;;;;;;;;;7.00;99.90;;;;;;5016251;28;19986;-71
2023/01/14 07:43:47;;;;;;;;;;;7.20;99.90;;;;;;5016182;28;19951;-71
2023/01/14 07:46:13;;;;;;;;;;;7.20;99.90;;;;;;5015855;28;19968;-71
2023/01/14 07:48:39;;;;;;;;;;;7.20;99.90;;;;;;5033938;28;19987;-71
2023/01/14 07:51:05;;;;;;;;;;;7.10;99.90;;;;;;5016409;28;19921;-71
2023/01/14 07:53:31;;;;;;;;;;;7.10;99.90;;;;;;5016097;28;19921;-72
2023/01/14 07:55:59;;;;;;;;;;;7.20;99.90;;;;;;5016109;28;20359;-71
2023/01/14 07:58:25;;;;;;;;;;;7.00;99.90;;;;;;5016172;28;19921;-71
2023/01/14 08:00:50;;;;;;;;;;;7.10;99.90;;;;;;5016154;28;20409;-71
2023/01/14 08:03:16;;;;;;;;;;;7.10;99.90;;;;;;5033699;28;20050;-71
2023/01/14 08:05:41;;;;;;;;;;;7.10;99.90;;;;;;5015812;28;19960;-71
2023/01/14 08:08:07;;;;;;;;;;;7.20;99.90;;;;;;5033228;28;19969;-71
2023/01/14 08:10:32;;;;;;;;;;;7.20;99.90;;;;;;5015612;28;19957;-71
2023/01/14 08:12:58;;;;;;;;;;;7.20;99.90;;;;;;5015696;28;20019;-71
2023/01/14 08:15:23;;;;;;;;;;;7.10;99.90;;;;;;5015578;28;19971;-71
2023/01/14 08:17:49;;;;;;;;;;;7.20;99.90;;;;;;5015620;28;19929;-71
2023/01/14 08:20:15;;;;;;;;;;;7.20;99.90;;;;;;5015502;28;19921;-71
2023/01/14 08:22:40;;;;;;;;;;;7.00;99.90;;;;;;5033163;28;19921;-72
2023/01/14 08:25:06;;;;;;;;;;;7.20;99.90;;;;;;5032717;28;20276;-72
2023/01/14 08:27:32;;;;;;;;;;;7.00;99.90;;;;;;5015335;28;19925;-71
2023/01/14 08:29:59;;;;;;;;;;;7.00;99.90;;;;;;5029282;28;20625;-71
2023/01/14 08:32:25;;;;;;;;;;;7.30;99.90;;;;;;5035106;28;19943;-71
2023/01/14 08:34:50;;;;;;;;;;;7.10;99.90;;;;;;5035164;28;19982;-71
2023/01/14 08:37:16;;;;;;;;;;;6.80;99.90;;;;;;5052495;28;19947;-71
2023/01/14 08:39:41;;;;;;;;;;;7.10;99.90;;;;;;5035285;28;19934;-71
2023/01/14 08:42:07;;;;;;;;;;;7.10;99.90;;;;;;5044260;28;19924;-71
2023/01/14 08:44:32;;;;;;;;;;;7.20;99.90;;;;;;5035460;28;19920;-71
2023/01/14 08:46:58;;;;;;;;;;;7.10;99.90;;;;;;5033552;28;19936;-71
2023/01/14 08:49:23;;;;;;;;;;;7.10;99.90;;;;;;5040314;28;19971;-71
2023/01/14 08:51:49;;;;;;;;;;;7.30;99.90;;;;;;5051601;28;19932;-71
2023/01/14 08:54:14;;;;;;;;;;;7.10;99.90;;;;;;5034090;28;20390;-71
2023/01/14 08:56:40;;;;;;;;;;;7.20;99.90;;;;;;5056616;28;19921;-71
2023/01/14 08:59:06;;;;;;;;;;;7.80;99.90;;;;;;5040526;28;19927;-71
2023/01/14 09:01:31;;;;;;;;;;;7.00;99.90;;;;;;5040873;28;19921;-70
2023/01/14 09:04:00;;;;;;;;;;;7.10;99.90;;;;;;5043934;28;19921;-71
2023/01/14 09:06:26;;;;;;;;;;;7.10;99.90;;;;;;5046405;28;19920;-71
2023/01/14 09:17:10;;;;;;;;;;;7.20;99.90;;;;;;5042574;28;19929;-71
2023/01/14 09:19:36;;;;;;;;;;;7.00;99.90;;;;;;5062132;28;19965;-71
2023/01/14 09:22:02;;;;;;;;;;;7.10;99.90;;;;;;5063384;28;19932;-71
2023/01/14 09:24:28;;;;;;;;;;;7.20;99.90;;;;;;5054154;28;20496;-71
2023/01/14 09:26:53;;;;;;;;;;;7.00;99.90;;;;;;5066593;28;20022;-71
2023/01/14 09:29:19;;;;;;;;;;;7.10;99.90;;;;;;5042438;28;19963;-72
2023/01/14 09:31:45;;;;;;;;;;;;;;;;;;5033733;28;20437;-71
2023/01/14 09:34:11;;;;;;;;;;;7.10;99.90;;;;;;5033957;28;19935;-71
2023/01/14 09:36:36;;;;;;;;;;;;;;;;;;5033827;28;19969;-72
2023/01/14 09:39:02;;;;;;;;;;;7.20;99.90;;;;;;5050438;28;20062;-72
2023/01/14 09:41:28;;;;;;;;;;;;;;;;;;5015117;28;20120;-71
2023/01/14 09:43:54;;;;;;;;;;;7.20;99.90;;;;;;5029378;28;19920;-70
2023/01/14 09:46:22;;;;;;;;;;;7.20;99.90;;;;;;5028679;28;19932;-72
2023/01/14 09:48:48;;;;;;;;;;;7.40;99.90;;;;;;5029210;28;20306;-71
2023/01/14 09:51:34;;;;;;;;;;;7.40;99.90;;;;;;5048407;28;19924;-71
2023/01/14 09:54:04;;;;;;;;;;;7.30;99.90;;;;;;5030319;28;19969;-71
2023/01/14 09:56:29;;;;;;;;;;;;;;;;;;5030309;28;19932;-70
2023/01/14 09:58:57;;;;;;;;;;;7.30;99.90;;;;;;5045848;28;19931;-71
2023/01/14 10:01:42;;;;;;;;;;;7.30;99.90;;;;;;5030444;28;19921;-70
2023/01/14 10:04:40;;;;;;;;;;;7.30;99.90;;;;;;5030339;28;19921;-70
2023/01/14 10:07:07;;;;;;;;;;;7.40;99.90;;;;;;4970796;28;19929;-70
2023/01/14 10:09:33;;;;;;;;;;;;;;;;;;5030284;28;19925;-71
2023/01/14 10:12:00;;;;;;;;;;;7.40;99.90;;;;;;5048327;28;20015;-71
2023/01/14 10:14:29;;;;;;;;;;;7.50;99.90;;;;;;5032246;28;19932;-71
2023/01/14 10:16:58;;;;;;;;;;;7.30;99.90;;;;;;5033714;28;19931;-70
2023/01/14 10:19:36;;;;;;;;;;;7.60;99.90;;;;;;5033049;28;19920;-70
2023/01/14 10:22:13;;;;;;;;;;;7.50;99.90;;;;;;5034432;28;19928;-71
2023/01/14 10:24:41;;;;;;;;;;;7.70;99.90;;;;;;5052484;28;19925;-71
2023/01/14 10:27:06;;;;;;;;;;;;;;;;;;5081547;22;19982;-73
2023/01/14 10:29:32;;;;;;;;;;;;;;;;;;5091125;28;19935;-73
2023/01/14 10:32:00;;;;;;;;;;;7.60;99.90;;;;;;5073647;28;19969;-73
2023/01/14 10:34:41;;;;;;;;;;;7.70;99.90;;;;;;5091871;28;20061;-73
2023/01/14 10:37:08;;;;;;;;;;;7.70;99.90;;;;;;5057728;28;19921;-73
2023/01/14 10:39:33;;;;;;;;;;;7.70;99.90;;;;;;5067975;28;20007;-73
2023/01/14 10:42:03;;;;;;;;;;;;;;;;;;5059699;28;20003;-73
2023/01/14 10:44:33;;;;;;;;;;;7.80;99.90;;;;;;5054293;28;20043;-73
2023/01/14 10:47:03;;;;;;;;;;;8.20;99.90;;;;;;5053655;28;19924;-73
2023/01/14 10:49:39;;;;;;;;;;;7.80;99.90;;;;;;5064576;28;19928;-73
2023/01/14 10:52:20;;;;;;;;;;;7.90;99.90;;;;;;5063862;28;19927;-72
2023/01/14 10:55:06;;;;;;;;;;;7.80;99.90;;;;;;5064869;28;19920;-73
2023/01/14 10:57:33;;;;;;;;;;;7.90;99.90;;;;;;5084918;28;20437;-73
2023/01/14 10:59:59;;;;;;;;;;;7.90;99.90;;;;;;5065952;28;19920;-73
2023/01/14 11:02:32;;;;;;;;;;;7.90;99.90;;;;;;5065912;28;19920;-73
2023/01/14 11:04:58;;;;;;;;;;;7.90;99.90;;;;;;5063845;28;19921;-74
2023/01/14 11:07:28;;;;;;;;;;;8.10;99.90;;;;;;5064883;28;19920;-73
2023/01/14 11:09:55;;;;;;;;;;;7.80;99.90;;;;;;5030296;28;19929;-73
2023/01/14 11:12:24;;;;;;;;;;;7.80;99.90;;;;;;5053933;28;20660;-73
2023/01/14 11:14:50;;;;;;;;;;;7.90;99.90;;;;;;5039265;28;19920;-73
2023/01/14 11:17:20;;;;;;;;;;;8.10;99.90;;;;;;5029619;28;19921;-73
2023/01/14 11:19:46;;;;;;;;;;;7.90;99.90;;;;;;5056427;28;20015;-73
2023/01/14 11:22:12;;;;;;;;;;;8.00;99.90;;;;;;5038834;28;20612;-73
2023/01/14 11:24:39;;;;;;;;;;;8.00;99.90;;;;;;5074069;28;19921;-73
2023/01/14 11:27:06;;;;;;;;;;;7.80;99.90;;;;;;5054791;28;19999;-73
2023/01/14 11:29:36;;;;;;;;;;;8.10;99.90;;;;;;5073974;28;20309;-73
2023/01/14 11:32:14;;;;;;;;;;;7.90;99.90;;;;;;5071532;28;19931;-73
2023/01/14 11:34:59;;;;;;;;;;;8.00;99.90;;;;;;5076755;28;19955;-74
2023/01/14 11:37:42;;;;;;;;;;;7.90;99.90;;;;;;5041362;28;19935;-73
2023/01/14 11:41:28;;;;;;;;;;;8.10;99.90;;;;;;5059020;28;19928;-72
2023/01/14 11:43:13;;;;;;;;;;;8.00;99.90;;;;;;5053205;28;19977;-73
2023/01/14 11:45:38;;;;;;;;;;;8.10;99.90;;;;;;5054900;28;20393;-73
2023/01/14 11:48:21;;;;;;;;;;;8.20;99.90;;;;;;5038693;28;19921;-73
2023/01/14 11:50:54;;;;;;;;;;;8.00;99.90;;;;;;5055951;28;19925;-73
2023/01/14 11:53:26;;;;;;;;;;;8.40;99.90;;;;;;5072301;28;19927;-73
2023/01/14 11:55:54;;;;;;;;;;;8.10;99.90;;;;;;5055068;28;20120;-73
2023/01/14 11:58:30;;;;;;;;;;;8.10;99.90;;;;;;5054525;28;19921;-73
2023/01/14 12:01:05;;;;;;;;;;;8.30;99.90;;;;;;5053314;28;20377;-73
2023/01/14 12:03:47;;;;;;;;;;;8.40;99.90;;;;;;5073505;28;19959;-72
2023/01/14 12:06:14;;;;;;;;;;;8.20;99.90;;;;;;5066536;28;19921;-73
2023/01/14 12:08:42;;;;;;;;;;;8.30;99.90;;;;;;5054837;28;19920;-73
2023/01/14 12:11:14;;;;;;;;;;;8.10;99.90;;;;;;5053168;28;20314;-73
2023/01/14 12:19:31;;;;;;;;;;;8.30;99.90;;;;;;5069103;28;19924;-73
2023/01/14 12:22:01;;;;;;;;;;;8.60;99.90;;;;;;5048847;28;19921;-73
2023/01/14 12:24:31;;;;;;;;;;;8.50;99.90;;;;;;5063269;28;19921;-73
2023/01/14 12:26:57;;;;;;;;;;;8.40;99.90;;;;;;5050465;28;20333;-73
2023/01/14 12:29:25;;;;;;;;;;;8.30;99.90;;;;;;5033590;28;19920;-73
2023/01/14 12:31:59;;;;;;;;;;;8.60;99.90;;;;;;5069059;28;19932;-73
2023/01/14 12:34:33;;;;;;;;;;;8.70;99.90;;;;;;5069223;28;19967;-73
2023/01/14 12:37:09;;;;;;;;;;;8.50;99.90;;;;;;5068458;28;19928;-73
2023/01/14 12:47:55;;;;;;;;;;;8.60;99.90;;;;;;5048897;28;20499;-73
2023/01/14 12:50:21;;;;;;;;;;;;;;;;;;5045245;28;20062;-73
2023/01/14 12:52:48;;;;;;;;;;;9.00;99.90;;;;;;5050623;28;19924;-73
2023/01/14 12:55:19;;;;;;;;;;;9.00;99.90;;;;;;5050349;28;19920;-73
2023/01/14 12:57:48;;;;;;;;;;;8.90;99.90;;;;;;5050124;28;19977;-73
2023/01/14 13:00:20;;;;;;;;;;;8.80;99.90;;;;;;5030666;28;19977;-73
2023/01/14 13:02:47;;;;;;;;;;;9.10;99.90;;;;;;5050252;28;19924;-73
2023/01/14 13:05:22;;;;;;;;;;;9.00;99.90;;;;;;5034942;28;19927;-74
2023/01/14 13:08:08;;;;;;;;;;;8.80;99.90;;;;;;5046320;28;19920;-73
2023/01/14 13:10:35;;;;;;;;;;;9.10;99.90;;;;;;5053470;28;20335;-73
2023/01/14 13:13:01;;;;;;;;;;;9.20;99.90;;;;;;5072520;28;19921;-73
2023/01/14 13:15:31;;;;;;;;;;;9.30;99.90;;;;;;5071328;28;20316;-73
2023/01/14 13:18:00;;;;;;;;;;;9.40;99.90;;;;;;5036804;28;20551;-73
2023/01/14 13:20:29;;;;;;;;;;;9.20;99.90;;;;;;5070709;28;19928;-73
2023/01/14 13:22:55;;;;;;;;;;;9.30;99.90;;;;;;5071672;28;19927;-73
2023/01/14 13:25:40;;;;;;;;;;;9.20;99.90;;;;;;5053596;28;19925;-73
2023/01/14 13:28:06;;;;;;;;;;;;;;;;;;5059803;28;19920;-73
2023/01/14 13:30:32;;;;;;;;;;;9.20;99.90;;;;;;5055963;28;19935;-73
2023/01/14 13:33:01;;;;;;;;;;;9.50;99.90;;;;;;5069756;28;19926;-73
2023/01/14 13:35:27;;;;;;;;;;;9.60;99.90;;;;;;5053855;28;20267;-73
2023/01/14 13:37:53;;;;;;;;;;;9.50;99.90;;;;;;5054201;28;20034;-73
2023/01/14 13:40:24;;;;;;;;;;;9.50;99.90;;;;;;5052575;28;20393;-73
2023/01/14 13:43:08;;;;;;;;;;;9.60;99.90;;;;;;5072193;28;20439;-73
2023/01/14 13:45:35;;;;;;;;;;;9.60;99.90;;;;;;5071785;28;19921;-73
2023/01/14 13:48:16;;;;;;;;;;;9.60;99.90;;;;;;5072000;28;19979;-74
2023/01/14 13:50:42;;;;;;;;;;;9.70;99.90;;;;;;5053919;28;19955;-73
2023/01/14 13:53:16;;;;;;;;;;;9.80;99.90;;;;;;5054324;28;19994;-73
2023/01/14 13:55:42;;;;;;;;;;;;;;;;;;5055951;28;19931;-73
2023/01/14 13:58:17;;;;;;;;;;;9.80;99.90;;;;;;5058373;28;20015;-73
2023/01/14 14:00:44;;;;;;;;;;;9.80;99.90;;;;;;5041887;28;20003;-74
2023/01/14 14:03:10;;;;;;;;;;;;;;;;;;5041273;28;19952;-74
2023/01/14 14:05:36;;;;;;;;;;;;;;;;;;5057628;28;19992;-74
2023/01/14 14:08:07;;;;;;;;;;;10.20;99.90;;;;;;5076085;28;20376;-72
2023/01/14 14:10:32;;;;;;;;;;;9.80;99.90;;;;;;5076233;28;20336;-73
2023/01/14 14:15:53;;;;;;;;;;;9.90;99.90;;;;;;5075092;28;19942;-72
2023/01/14 14:18:40;;;;;;;;;;;10.20;99.90;;;;;;5075570;28;20382;-72
2023/01/14 14:21:12;;;;;;;;;;;10.40;99.90;;;;;;5040894;28;19935;-72
2023/01/14 14:23:40;;;;;;;;;;;10.30;99.90;;;;;;5057889;28;19968;-72
2023/01/14 14:26:13;;;;;;;;;;;10.10;99.90;;;;;;5040215;28;19925;-72
2023/01/14 14:28:40;;;;;;;;;;;10.30;99.90;;;;;;5057405;28;19926;-72
2023/01/14 14:31:13;;;;;;;;;;;11.00;99.90;;;;;;5067379;28;20015;-72
2023/01/14 14:33:40;;;;;;;;;;;10.50;99.90;;;;;;5075550;28;19943;-72
2023/01/14 14:36:08;;;;;;;;;;;10.50;99.90;;;;;;5056842;28;19920;-72
2023/01/14 14:38:34;;;;;;;;;;;10.20;99.90;;;;;;5075177;28;19974;-72
2023/01/14 14:41:11;;;;;;;;;;;10.20;99.90;;;;;;5073912;28;19964;-72
2023/01/14 14:43:37;;;;;;;;;;;10.50;99.90;;;;;;5057326;28;19920;-73
2023/01/14 14:46:07;;;;;;;;;;;10.60;99.90;;;;;;5056723;28;20359;-73
2023/01/14 14:48:33;;;;;;;;;;;10.20;99.90;;;;;;5073600;28;19925;-72
2023/01/14 14:50:59;;;;;;;;;;;10.60;99.90;;;;;;5073843;28;19936;-72
2023/01/14 14:53:26;;;;;;;;;;;10.40;99.90;;;;;;5056804;28;19943;-72
2023/01/14 14:55:52;;;;;;;;;;;10.60;99.90;;;;;;5073094;28;19973;-72
2023/01/14 14:58:19;;;;;;;;;;;10.40;99.90;;;;;;5073659;28;19967;-72
2023/01/14 15:00:50;;;;;;;;;;;10.60;99.90;;;;;;5073349;28;20373;-72
2023/01/14 15:03:18;;;;;;;;;;;10.60;99.90;;;;;;5056865;28;19920;-72
2023/01/14 15:05:44;;;;;;;;;;;10.40;99.90;;;;;;5072579;28;20461;-72
2023/01/14 15:08:10;;;;;;;;;;;10.80;99.90;;;;;;5056571;28;20269;-72
2023/01/14 15:10:36;;;;;;;;;;;10.80;99.90;;;;;;5073431;28;19924;-72
2023/01/14 15:13:02;;;;;;;;;;;10.70;99.90;;;;;;5074549;28;20339;-72
2023/01/14 15:15:28;;;;;;;;;;;10.80;99.90;;;;;;5073007;28;20008;-72
2023/01/14 15:17:59;;;;;;;;;;;10.50;99.90;;;;;;5073383;28;20336;-72
2023/01/14 15:20:24;;;;;;;;;;;10.40;99.90;;;;;;5073045;28;19920;-72
2023/01/14 15:22:51;;;;;;;;;;;10.80;99.90;;;;;;5074510;28;19920;-72
2023/01/14 15:25:18;;;;;;;;;;;10.40;99.90;;;;;;5072612;28;19927;-73
2023/01/14 15:27:45;;;;;;;;;;;10.50;99.90;;;;;;5074281;28;19928;-72
2023/01/14 15:30:31;;;;;;;;;;;10.50;99.90;;;;;;5070408;28;20382;-72
2023/01/14 15:32:56;;;;;;;;;;;10.80;99.90;;;;;;5056156;28;19969;-74
2023/01/14 15:35:24;;;;;;;;;;;10.60;99.90;;;;;;5074442;28;19924;-74